createdAt,value
2018-11-02T00:00:40.913Z,93.50
2018-11-02T00:03:09.756Z,94.29
2018-11-02T00:05:38.117Z,95.12
2018-11-02T00:08:06.986Z,95.32
2018-11-02T00:10:35.269Z,95.06
2018-11-02T00:13:03.593Z,95.55
2018-11-02T00:15:31.944Z,95.88
2018-11-02T00:18:00.317Z,96.74
2018-11-02T00:20:28.976Z,97.88
2018-11-02T00:22:57.294Z,98.44
2018-11-02T00:25:25.767Z,98.82
2018-11-02T00:27:54.096Z,99.14
2018-11-02T00:30:23.553Z,100.00
2018-11-02T00:32:51.886Z,100.00
2018-11-02T00:35:20.300Z,100.00
2018-11-02T00:37:48.630Z,100.00
2018-11-02T00:40:16.990Z,100.00
2018-11-02T00:42:45.285Z,100.00
2018-11-02T00:45:13.621Z,100.00
2018-11-02T00:47:42.274Z,100.00
2018-11-02T00:50:12.057Z,99.83
2018-11-02T00:52:40.449Z,98.85
2018-11-02T00:55:09.317Z,96.88
2018-11-02T00:57:38.869Z,95.06
2018-11-02T01:00:09.637Z,94.04
2018-11-02T01:02:38.200Z,93.11
2018-11-02T01:05:07.133Z,92.88
2018-11-02T01:07:35.733Z,91.71
2018-11-02T01:10:04.302Z,91.97
2018-11-02T01:12:32.738Z,93.04
2018-11-02T01:15:01.106Z,91.63
2018-11-02T01:17:29.449Z,92.74
2018-11-02T01:19:57.873Z,92.89
2018-11-02T01:22:26.263Z,93.49
2018-11-02T01:24:54.651Z,94.75
2018-11-02T01:27:22.962Z,95.46
2018-11-02T01:29:51.274Z,97.42
2018-11-02T01:32:19.623Z,97.90
2018-11-02T01:34:47.930Z,98.11
2018-11-02T01:37:16.425Z,97.93
2018-11-02T01:39:44.919Z,97.69
2018-11-02T01:42:13.341Z,98.68
2018-11-02T01:44:41.722Z,99.08
2018-11-02T01:47:10.039Z,98.64
2018-11-02T01:49:39.560Z,100.00
2018-11-02T01:52:08.089Z,99.87
2018-11-02T01:54:36.493Z,100.00
2018-11-02T01:57:04.917Z,100.00
2018-11-02T01:59:33.512Z,100.00
2018-11-02T02:02:01.934Z,100.00
2018-11-02T02:04:30.281Z,99.49
2018-11-02T02:06:58.644Z,99.53
2018-11-02T02:09:27.004Z,99.58
2018-11-02T02:11:55.332Z,99.57
2018-11-02T02:14:23.742Z,99.71
2018-11-02T02:16:52.546Z,100.00
2018-11-02T02:19:20.929Z,99.83
2018-11-02T02:21:49.244Z,99.83
2018-11-02T02:24:17.579Z,100.00
2018-11-02T02:26:45.853Z,100.00
2018-11-02T02:29:15.531Z,100.00
2018-11-02T02:31:43.843Z,100.00
2018-11-02T02:34:12.182Z,99.24
2018-11-02T02:36:40.501Z,100.00
2018-11-02T02:39:09.844Z,99.51
2018-11-02T02:41:38.765Z,98.64
2018-11-02T02:44:07.734Z,98.42
2018-11-02T02:46:36.225Z,98.13
2018-11-02T02:49:05.025Z,99.02
2018-11-02T02:51:33.323Z,98.30
2018-11-02T02:54:01.723Z,99.46
2018-11-02T02:56:30.083Z,99.46
2018-11-02T02:58:58.420Z,98.97
2018-11-02T03:01:26.754Z,99.60
2018-11-02T03:03:55.125Z,99.06
2018-11-02T03:06:23.397Z,100.00
2018-11-02T03:08:51.782Z,100.00
2018-11-02T03:11:20.213Z,100.00
2018-11-02T03:13:48.593Z,99.37
2018-11-02T03:16:16.917Z,99.86
2018-11-02T03:18:45.275Z,99.91
2018-11-02T03:21:13.592Z,99.81
2018-11-02T03:23:41.985Z,100.00
2018-11-02T03:26:10.352Z,99.29
2018-11-02T03:28:38.785Z,99.62
2018-11-02T03:31:07.119Z,100.00
2018-11-02T03:33:35.569Z,99.56
2018-11-02T03:36:04.006Z,99.15
2018-11-02T03:38:32.389Z,97.91
2018-11-02T03:41:00.719Z,97.86
2018-11-02T03:43:29.064Z,98.88
2018-11-02T03:45:57.506Z,99.46
2018-11-02T03:48:25.811Z,100.00
2018-11-02T03:50:54.195Z,100.00
2018-11-02T03:53:22.519Z,99.13
2018-11-02T03:55:50.961Z,99.20
2018-11-02T03:58:19.328Z,100.00
2018-11-02T04:00:47.662Z,100.00
2018-11-02T04:03:16.035Z,100.00
2018-11-02T04:05:44.410Z,100.00
2018-11-02T04:08:12.725Z,100.00
2018-11-02T04:10:41.223Z,100.00
2018-11-02T04:13:09.604Z,100.00
2018-11-02T04:15:37.969Z,100.00
2018-11-02T04:18:06.801Z,100.00
2018-11-02T04:20:35.114Z,100.00
2018-11-02T04:23:03.467Z,100.00
2018-11-02T04:25:31.806Z,100.00
2018-11-02T04:28:00.122Z,100.00
2018-11-02T04:30:28.496Z,100.00
2018-11-02T04:32:56.749Z,100.00
2018-11-02T04:35:25.070Z,100.00
2018-11-02T04:37:53.414Z,100.00
2018-11-02T04:40:21.880Z,100.00
2018-11-02T04:42:50.266Z,100.00
2018-11-02T04:45:22.857Z,100.00
2018-11-02T04:47:51.174Z,100.00
2018-11-02T04:50:19.563Z,100.00
2018-11-02T04:52:47.879Z,100.00
2018-11-02T04:55:16.434Z,100.00
2018-11-02T04:57:44.808Z,100.00
2018-11-02T05:00:13.140Z,100.00
2018-11-02T05:02:41.486Z,100.00
2018-11-02T05:05:09.825Z,100.00
2018-11-02T05:07:38.129Z,100.00
2018-11-02T05:10:07.334Z,100.00
2018-11-02T05:12:35.670Z,100.00
2018-11-02T05:15:04.139Z,100.00
2018-11-02T05:17:32.601Z,100.00
2018-11-02T05:20:00.930Z,100.00
2018-11-02T05:22:29.440Z,100.00
2018-11-02T05:24:57.989Z,100.00
2018-11-02T05:27:26.316Z,100.00
2018-11-02T05:29:54.599Z,100.00
2018-11-02T05:32:23.108Z,100.00
2018-11-02T05:34:51.431Z,100.00
2018-11-02T05:37:19.810Z,100.00
2018-11-02T05:39:48.148Z,100.00
2018-11-02T05:42:16.654Z,100.00
2018-11-02T05:44:44.961Z,100.00
2018-11-02T05:47:13.500Z,100.00
2018-11-02T05:49:41.855Z,100.00
2018-11-02T05:52:10.200Z,100.00
2018-11-02T05:54:38.713Z,100.00
2018-11-02T05:57:08.003Z,100.00
2018-11-02T05:59:36.295Z,100.00
2018-11-02T06:02:04.674Z,100.00
2018-11-02T06:04:33.051Z,100.00
2018-11-02T06:07:01.484Z,100.00
2018-11-02T06:09:29.862Z,100.00
2018-11-02T06:11:58.268Z,100.00
2018-11-02T06:14:26.824Z,100.00
2018-11-02T06:16:55.256Z,100.00
2018-11-02T06:19:23.703Z,100.00
2018-11-02T06:21:52.068Z,100.00
2018-11-02T06:24:20.497Z,100.00
2018-11-02T06:26:48.760Z,100.00
2018-11-02T06:29:17.087Z,100.00
2018-11-02T06:31:45.458Z,100.00
2018-11-02T06:34:14.247Z,100.00
2018-11-02T06:36:42.625Z,100.00
2018-11-02T06:39:11.269Z,100.00
2018-11-02T06:41:39.614Z,100.00
2018-11-02T06:44:08.011Z,100.00
2018-11-02T06:46:36.400Z,100.00
2018-11-02T06:49:04.871Z,100.00
2018-11-02T06:51:33.297Z,100.00
2018-11-02T06:54:01.663Z,100.00
2018-11-02T06:56:30.110Z,99.49
2018-11-02T06:59:01.401Z,100.00
2018-11-02T07:01:29.708Z,99.11
2018-11-02T07:03:59.227Z,97.58
2018-11-02T07:06:27.580Z,98.56
2018-11-02T07:08:55.947Z,97.41
2018-11-02T07:11:24.268Z,96.65
2018-11-02T07:13:52.709Z,94.40
2018-11-02T07:16:20.996Z,94.10
2018-11-02T07:18:49.331Z,93.57
2018-11-02T07:21:18.441Z,93.02
2018-11-02T07:23:47.717Z,95.22
2018-11-02T07:26:16.024Z,95.71
2018-11-02T07:28:45.670Z,95.06
2018-11-02T07:31:14.570Z,94.94
2018-11-02T07:33:43.213Z,94.29
2018-11-02T07:36:12.787Z,95.56
2018-11-02T07:38:41.110Z,96.34
2018-11-02T07:41:09.532Z,95.70
2018-11-02T07:43:37.835Z,94.95
2018-11-02T07:46:06.181Z,93.19
2018-11-02T07:48:34.666Z,93.51
2018-11-02T07:51:03.008Z,91.62
2018-11-02T07:53:31.341Z,90.99
2018-11-02T07:55:59.726Z,87.80
2018-11-02T07:58:28.101Z,86.27
2018-11-02T08:00:56.480Z,85.49
2018-11-02T08:03:24.890Z,82.83
2018-11-02T08:05:53.279Z,82.14
2018-11-02T08:08:22.114Z,80.63
2018-11-02T08:10:50.563Z,81.22
2018-11-02T08:13:19.071Z,81.95
2018-11-02T08:15:47.512Z,82.51
2018-11-02T08:18:15.857Z,82.45
2018-11-02T08:20:44.176Z,83.50
2018-11-02T08:23:12.573Z,82.98
2018-11-02T08:25:41.002Z,81.96
2018-11-02T08:28:09.352Z,82.04
2018-11-02T08:30:37.873Z,79.84
2018-11-02T08:33:06.428Z,80.08
2018-11-02T08:35:34.749Z,78.57
2018-11-02T08:38:03.092Z,77.69
2018-11-02T08:40:31.403Z,74.46
2018-11-02T08:42:59.791Z,72.87
2018-11-02T08:45:28.163Z,71.60
2018-11-02T08:47:56.506Z,71.53
2018-11-02T08:50:24.815Z,70.73
2018-11-02T08:52:53.168Z,72.25
2018-11-02T08:55:22.372Z,72.05
2018-11-02T08:57:50.759Z,73.98
2018-11-02T09:00:19.169Z,74.00
2018-11-02T09:02:47.439Z,74.02
2018-11-02T09:05:15.730Z,73.32
2018-11-02T09:07:44.184Z,72.24
2018-11-02T09:10:13.024Z,69.68
2018-11-02T09:12:41.385Z,70.23
2018-11-02T09:15:09.704Z,68.25
2018-11-02T09:17:38.214Z,67.58
2018-11-02T09:20:07.260Z,66.24
2018-11-02T09:22:35.939Z,66.89
2018-11-02T09:25:04.341Z,65.52
2018-11-02T09:27:32.896Z,64.63
2018-11-02T09:30:01.228Z,65.46
2018-11-02T09:32:29.787Z,64.95
2018-11-02T09:34:58.329Z,65.70
2018-11-02T09:37:26.755Z,63.69
2018-11-02T09:39:55.261Z,62.63
2018-11-02T09:42:23.605Z,62.24
2018-11-02T09:44:52.111Z,61.84
2018-11-02T09:47:20.902Z,63.32
2018-11-02T09:49:49.221Z,62.75
2018-11-02T09:52:17.568Z,61.55
2018-11-02T09:54:45.901Z,61.46
2018-11-02T09:57:14.417Z,62.03
2018-11-02T09:59:42.836Z,62.54
2018-11-02T10:02:11.512Z,62.05
2018-11-02T10:04:39.797Z,62.00
2018-11-02T10:07:08.157Z,63.01
2018-11-02T10:09:36.657Z,62.90
2018-11-02T10:12:06.016Z,62.93
2018-11-02T10:14:34.377Z,63.75
2018-11-02T10:17:02.791Z,64.37
2018-11-02T10:19:31.175Z,64.46
2018-11-02T10:21:59.637Z,66.52
2018-11-02T10:24:28.004Z,66.83
2018-11-02T10:26:56.496Z,66.64
2018-11-02T10:29:24.876Z,66.12
2018-11-02T10:31:53.461Z,66.94
2018-11-02T10:34:21.833Z,66.62
2018-11-02T10:36:50.269Z,67.79
2018-11-02T10:39:18.748Z,66.57
2018-11-02T10:41:52.197Z,67.02
2018-11-02T10:44:30.648Z,68.38
2018-11-02T10:46:58.961Z,67.45
2018-11-02T10:49:27.397Z,69.38
2018-11-02T10:51:55.856Z,68.52
2018-11-02T10:54:24.217Z,69.22
2018-11-02T10:56:52.531Z,68.33
2018-11-02T10:59:20.975Z,69.40
2018-11-02T11:01:51.089Z,69.11
2018-11-02T11:04:20.149Z,69.84
2018-11-02T11:06:48.640Z,68.19
2018-11-02T11:09:17.106Z,65.92
2018-11-02T11:11:45.731Z,67.05
2018-11-02T11:14:13.884Z,67.28
2018-11-02T11:16:42.222Z,64.17
2018-11-02T11:19:11.175Z,64.34
2018-11-02T11:21:40.819Z,63.67
2018-11-02T11:24:09.268Z,62.14
2018-11-02T11:26:38.263Z,62.03
2018-11-02T11:29:07.129Z,62.22
2018-11-02T11:31:36.288Z,62.46
2018-11-02T11:34:05.480Z,62.38
2018-11-02T11:36:33.775Z,61.83
2018-11-02T11:39:02.377Z,60.70
2018-11-02T11:41:30.858Z,62.85
2018-11-02T11:43:59.284Z,61.89
2018-11-02T11:46:27.617Z,61.99
2018-11-02T11:48:56.705Z,63.17
2018-11-02T11:51:24.854Z,63.49
2018-11-02T11:53:53.409Z,62.96
2018-11-02T11:56:21.800Z,60.82
2018-11-02T11:58:50.139Z,61.42
2018-11-02T12:01:18.479Z,61.65
2018-11-02T12:03:46.867Z,62.08
2018-11-02T12:06:15.345Z,61.63
2018-11-02T12:08:43.716Z,61.65
2018-11-02T12:11:12.028Z,62.82
2018-11-02T12:13:40.929Z,62.72
2018-11-02T12:16:09.308Z,63.46
2018-11-02T12:18:37.690Z,62.97
2018-11-02T12:21:06.873Z,62.71
2018-11-02T12:23:35.620Z,62.64
2018-11-02T12:26:04.751Z,62.75
2018-11-02T12:28:33.259Z,62.03
2018-11-02T12:31:01.563Z,61.00
2018-11-02T12:33:29.915Z,61.86
2018-11-02T12:35:58.230Z,63.55
2018-11-02T12:38:26.642Z,62.79
2018-11-02T12:40:55.016Z,63.25
2018-11-02T12:43:23.431Z,63.50
2018-11-02T12:46:13.594Z,63.52
2018-11-02T12:48:43.586Z,63.53
2018-11-02T12:51:11.751Z,63.68
2018-11-02T12:53:40.102Z,64.56
2018-11-02T12:56:08.469Z,63.45
2018-11-02T12:58:36.870Z,63.71
2018-11-02T13:01:05.256Z,63.31
2018-11-02T13:03:33.566Z,64.14
2018-11-02T13:06:01.945Z,64.82
2018-11-02T13:08:30.250Z,65.54
2018-11-02T13:10:58.596Z,66.65
2018-11-02T13:13:26.895Z,66.07
2018-11-02T13:15:55.338Z,67.33
2018-11-02T13:18:23.563Z,67.95
2018-11-02T13:20:52.126Z,67.21
2018-11-02T13:23:20.654Z,68.21
2018-11-02T13:25:49.075Z,67.05
2018-11-02T13:28:17.493Z,67.10
2018-11-02T13:30:45.780Z,67.31
2018-11-02T13:33:14.099Z,67.36
2018-11-02T13:35:42.524Z,67.25
2018-11-02T13:38:10.878Z,66.28
2018-11-02T13:40:39.373Z,66.67
2018-11-02T13:43:07.850Z,66.72
2018-11-02T13:45:36.123Z,67.04
2018-11-02T13:48:04.481Z,68.58
2018-11-02T13:50:32.857Z,68.30
2018-11-02T13:53:01.090Z,68.80
2018-11-02T13:55:29.401Z,69.06
2018-11-02T13:57:57.920Z,67.67
2018-11-02T14:00:26.766Z,68.85
2018-11-02T14:02:55.168Z,68.83
2018-11-02T14:05:23.553Z,69.07
2018-11-02T14:07:52.209Z,69.28
2018-11-02T14:10:20.573Z,68.98
2018-11-02T14:12:48.911Z,69.80
2018-11-02T14:15:17.520Z,70.28
2018-11-02T14:17:46.095Z,70.58
2018-11-02T14:20:15.013Z,70.57
2018-11-02T14:22:43.402Z,72.37
2018-11-02T14:25:14.105Z,70.42
2018-11-02T14:27:42.457Z,70.40
2018-11-02T14:30:12.812Z,70.70
2018-11-02T14:32:41.189Z,71.13
2018-11-02T14:35:09.514Z,70.70
2018-11-02T14:37:38.127Z,71.76
2018-11-02T14:40:07.861Z,71.74
2018-11-02T14:42:36.732Z,71.44
2018-11-02T14:45:05.917Z,72.21
2018-11-02T14:47:34.271Z,70.21
2018-11-02T14:50:02.712Z,69.93
2018-11-02T14:52:31.155Z,70.56
2018-11-02T14:54:59.513Z,70.98
2018-11-02T14:57:27.809Z,70.48
2018-11-02T14:59:56.288Z,70.70
2018-11-02T15:02:24.455Z,71.45
2018-11-02T15:04:52.916Z,70.95
2018-11-02T15:07:21.456Z,71.57
2018-11-02T15:09:49.760Z,71.54
2018-11-02T15:12:18.151Z,70.96
2018-11-02T15:14:46.692Z,70.79
2018-11-02T15:17:15.481Z,70.98
2018-11-02T15:19:44.445Z,72.28
2018-11-02T15:22:12.823Z,70.65
2018-11-02T15:24:41.188Z,71.32
2018-11-02T15:27:09.476Z,70.49
2018-11-02T15:29:37.862Z,70.94
2018-11-02T15:32:06.364Z,73.78
2018-11-02T15:34:34.691Z,76.82
2018-11-02T15:37:03.013Z,75.85
2018-11-02T15:39:31.330Z,76.13
2018-11-02T15:41:59.687Z,75.61
2018-11-02T15:44:28.092Z,73.75
2018-11-02T15:46:56.452Z,73.76
2018-11-02T15:49:24.847Z,74.30
2018-11-02T15:51:53.388Z,75.14
2018-11-02T15:54:21.748Z,74.41
2018-11-02T15:56:50.142Z,74.68
2018-11-02T15:59:18.493Z,75.80
2018-11-02T16:01:46.859Z,76.31
2018-11-02T16:04:15.130Z,75.89
2018-11-02T16:06:43.520Z,77.47
2018-11-02T16:09:14.199Z,77.65
2018-11-02T16:11:42.676Z,79.18
2018-11-02T16:14:11.295Z,81.30
2018-11-02T16:16:39.568Z,79.32
2018-11-02T16:19:07.945Z,81.58
2018-11-02T16:21:36.819Z,82.73
2018-11-02T16:24:05.774Z,82.45
2018-11-02T16:26:34.083Z,84.05
2018-11-02T16:29:02.455Z,82.44
2018-11-02T16:31:30.787Z,83.56
2018-11-02T16:33:59.187Z,84.10
2018-11-02T16:36:27.597Z,85.04
2018-11-02T16:38:56.156Z,84.20
2018-11-02T16:41:24.630Z,86.34
2018-11-02T16:43:53.112Z,86.17
2018-11-02T16:46:21.448Z,85.89
2018-11-02T16:48:49.994Z,85.62
2018-11-02T16:51:18.498Z,86.09
2018-11-02T16:53:46.961Z,87.07
2018-11-02T16:56:15.651Z,87.28
2018-11-02T16:58:44.003Z,88.60
2018-11-02T17:01:12.321Z,88.77
2018-11-02T17:03:40.878Z,87.63
2018-11-02T17:06:09.272Z,88.29
2018-11-02T17:08:37.630Z,88.08
2018-11-02T17:11:06.023Z,87.74
2018-11-02T17:13:34.303Z,86.55
2018-11-02T17:16:02.628Z,85.73
2018-11-02T17:18:31.011Z,85.91
2018-11-02T17:20:59.312Z,87.87
2018-11-02T17:23:27.675Z,88.03
2018-11-02T17:25:56.302Z,87.37
2018-11-02T17:28:24.683Z,87.69
2018-11-02T17:30:53.261Z,88.33
2018-11-02T17:33:21.616Z,87.84
2018-11-02T17:35:49.964Z,86.98
2018-11-02T17:38:18.373Z,87.30
2018-11-02T17:40:46.728Z,88.28
2018-11-02T17:43:15.002Z,87.28
2018-11-02T17:45:43.453Z,89.24
2018-11-02T17:48:11.785Z,90.14
2018-11-02T17:50:40.157Z,90.02
2018-11-02T17:53:08.522Z,88.53
2018-11-02T17:55:36.820Z,88.80
2018-11-02T17:58:05.144Z,89.21
2018-11-02T18:00:33.469Z,89.64
2018-11-02T18:03:01.882Z,89.13
2018-11-02T18:05:30.235Z,90.06
2018-11-02T18:07:58.634Z,88.98
2018-11-02T18:10:26.971Z,87.47
2018-11-02T18:12:55.270Z,88.03
2018-11-02T18:15:23.619Z,89.61
2018-11-02T18:17:51.974Z,90.68
2018-11-02T18:20:20.653Z,91.78
2018-11-02T18:22:48.985Z,91.90
2018-11-02T18:25:17.373Z,90.55
2018-11-02T18:27:45.676Z,91.78
2018-11-02T18:30:14.025Z,90.71
2018-11-02T18:32:42.384Z,91.73
2018-11-02T18:35:11.202Z,91.63
2018-11-02T18:37:39.600Z,91.67
2018-11-02T18:40:09.625Z,89.54
2018-11-02T18:42:38.414Z,90.04
2018-11-02T18:45:09.215Z,89.38
2018-11-02T18:47:44.027Z,89.74
2018-11-02T18:50:13.450Z,90.44
2018-11-02T18:52:41.751Z,91.00
2018-11-02T18:55:10.127Z,91.31
2018-11-02T18:57:38.910Z,90.62
2018-11-02T19:00:08.336Z,90.33
2018-11-02T19:02:36.675Z,89.96
2018-11-02T19:05:06.690Z,89.98
2018-11-02T19:07:35.035Z,90.58
2018-11-02T19:10:03.412Z,90.67
2018-11-02T19:12:31.834Z,90.04
2018-11-02T19:15:00.189Z,89.61
2018-11-02T19:17:28.547Z,89.83
2018-11-02T19:19:57.101Z,90.29
2018-11-02T19:22:25.377Z,91.36
2018-11-02T19:24:53.669Z,89.56
2018-11-02T19:27:21.991Z,89.89
2018-11-02T19:29:51.359Z,89.70
2018-11-02T19:32:19.681Z,90.44
2018-11-02T19:34:48.290Z,91.91
2018-11-02T19:37:16.406Z,91.11
2018-11-02T19:39:44.737Z,91.18
2018-11-02T19:42:13.032Z,91.57
2018-11-02T19:44:41.291Z,90.99
2018-11-02T19:47:09.708Z,93.39
2018-11-02T19:49:38.064Z,92.69
2018-11-02T19:52:06.433Z,91.79
2018-11-02T19:54:35.679Z,92.32
2018-11-02T19:57:04.054Z,94.88
2018-11-02T19:59:32.394Z,95.78
2018-11-02T20:02:00.690Z,96.21
2018-11-02T20:04:29.018Z,97.04
2018-11-02T20:06:57.521Z,97.54
2018-11-02T20:09:25.930Z,95.50
2018-11-02T20:11:54.292Z,95.83
2018-11-02T20:14:22.643Z,94.21
2018-11-02T20:16:50.997Z,95.60
2018-11-02T20:19:19.350Z,97.99
2018-11-02T20:21:47.655Z,97.50
2018-11-02T20:24:15.991Z,97.38
2018-11-02T20:26:44.345Z,99.09
2018-11-02T20:29:12.657Z,97.54
2018-11-02T20:31:41.069Z,97.89
2018-11-02T20:34:09.468Z,98.36
2018-11-02T20:36:37.793Z,98.62
2018-11-02T20:39:09.397Z,98.49
2018-11-02T20:41:37.682Z,100.00
2018-11-02T20:44:06.142Z,100.00
2018-11-02T20:46:35.020Z,100.00
2018-11-02T20:49:03.436Z,100.00
2018-11-02T20:51:31.795Z,100.00
2018-11-02T20:54:00.147Z,100.00
2018-11-02T20:56:28.490Z,100.00
2018-11-02T20:58:56.942Z,100.00
2018-11-02T21:01:25.306Z,100.00
2018-11-02T21:03:53.651Z,100.00
2018-11-02T21:06:22.150Z,100.00
2018-11-02T21:08:50.553Z,100.00
2018-11-02T21:11:18.893Z,100.00
2018-11-02T21:13:47.242Z,100.00
2018-11-02T21:16:15.540Z,100.00
2018-11-02T21:18:44.199Z,100.00
2018-11-02T21:21:12.675Z,100.00
2018-11-02T21:23:40.892Z,100.00
2018-11-02T21:26:09.227Z,100.00
2018-11-02T21:28:37.549Z,100.00
2018-11-02T21:31:06.579Z,100.00
2018-11-02T21:33:35.047Z,100.00
2018-11-02T21:36:03.351Z,100.00
2018-11-02T21:38:31.879Z,100.00
2018-11-02T21:41:00.651Z,100.00
2018-11-02T21:43:29.024Z,100.00
2018-11-02T21:45:57.382Z,100.00
2018-11-02T21:48:25.705Z,100.00
2018-11-02T21:50:54.033Z,100.00
2018-11-02T21:53:22.376Z,100.00
2018-11-02T21:55:50.721Z,100.00
2018-11-02T21:58:19.060Z,100.00
2018-11-02T22:00:47.361Z,100.00
2018-11-02T22:03:15.717Z,100.00
2018-11-02T22:05:44.118Z,100.00
2018-11-02T22:08:12.472Z,100.00
2018-11-02T22:10:40.853Z,100.00
2018-11-02T22:13:09.177Z,100.00
2018-11-02T22:15:37.981Z,100.00
2018-11-02T22:18:06.346Z,100.00
2018-11-02T22:20:34.688Z,100.00
2018-11-02T22:23:03.026Z,100.00
2018-11-02T22:25:31.360Z,100.00
2018-11-02T22:27:59.949Z,100.00
2018-11-02T22:30:28.417Z,100.00
2018-11-02T22:32:56.704Z,100.00
2018-11-02T22:35:25.104Z,100.00
2018-11-02T22:37:53.465Z,100.00
2018-11-02T22:40:21.905Z,100.00
2018-11-02T22:42:50.458Z,100.00
2018-11-02T22:45:18.793Z,100.00
2018-11-02T22:47:52.357Z,100.00
2018-11-02T22:50:20.664Z,100.00
2018-11-02T22:52:49.029Z,100.00
2018-11-02T22:55:17.521Z,100.00
2018-11-02T22:57:45.881Z,100.00
2018-11-02T23:00:17.379Z,100.00
2018-11-02T23:02:46.548Z,100.00
2018-11-02T23:05:14.868Z,100.00
2018-11-02T23:07:43.594Z,100.00
2018-11-02T23:10:12.085Z,100.00
2018-11-02T23:12:41.067Z,100.00
2018-11-02T23:15:10.249Z,100.00
2018-11-02T23:17:38.611Z,100.00
2018-11-02T23:20:08.879Z,100.00
2018-11-02T23:22:37.260Z,100.00
2018-11-02T23:25:06.749Z,100.00
2018-11-02T23:27:35.169Z,100.00
2018-11-02T23:30:03.625Z,100.00
2018-11-02T23:32:31.877Z,100.00
2018-11-02T23:35:00.190Z,100.00
2018-11-02T23:37:28.523Z,100.00
2018-11-02T23:39:56.840Z,100.00
2018-11-02T23:42:25.544Z,100.00
2018-11-02T23:44:53.964Z,100.00
2018-11-02T23:47:22.287Z,100.00
2018-11-02T23:49:50.628Z,100.00
2018-11-02T23:52:18.986Z,100.00
2018-11-02T23:54:47.341Z,100.00
2018-11-02T23:57:15.669Z,100.00
2018-11-02T23:59:44.043Z,100.00
